createdAt,value
2018-02-04T00:04:03.200Z,1011.3
2018-02-04T00:09:02.701Z,1011.5
2018-02-04T00:14:03.361Z,1011.5
2018-02-04T00:19:03.093Z,1011.5
2018-02-04T00:24:02.794Z,1011.5
2018-02-04T00:29:02.720Z,1011.5
2018-02-04T00:34:02.718Z,1011.6
2018-02-04T00:39:02.866Z,1011.6
2018-02-04T00:44:02.735Z,1011.7
2018-02-04T00:49:02.959Z,1011.7
2018-02-04T00:54:02.836Z,1011.7
2018-02-04T00:59:02.735Z,1011.8
2018-02-04T01:04:02.944Z,1011.8
2018-02-04T01:09:02.728Z,1011.9
2018-02-04T01:14:02.735Z,1011.9
2018-02-04T01:19:02.722Z,1012
2018-02-04T01:24:02.734Z,1012
2018-02-04T01:29:02.892Z,1012
2018-02-04T01:34:02.788Z,1012
2018-02-04T01:39:02.815Z,1012.1
2018-02-04T01:44:06.892Z,1012.1
2018-02-04T01:49:11.993Z,1012.2
2018-02-04T01:54:06.851Z,1012.3
2018-02-04T01:59:07.084Z,1012.2
2018-02-04T02:04:06.909Z,1012.3
2018-02-04T02:09:07.070Z,1012.3
2018-02-04T02:14:06.934Z,1012.3
2018-02-04T02:19:07.152Z,1012.4
2018-02-04T02:24:07.078Z,1012.3
2018-02-04T02:29:07.239Z,1012.4
2018-02-04T02:34:07.145Z,1012.5
2018-02-04T02:39:06.924Z,1012.4
2018-02-04T02:44:06.935Z,1012.5
2018-02-04T02:49:07.126Z,1012.5
2018-02-04T02:54:07.166Z,1012.5
2018-02-04T02:59:07.189Z,1012.6
2018-02-04T03:04:07.158Z,1012.6
2018-02-04T03:09:06.932Z,1012.6
2018-02-04T03:14:07.015Z,1012.6
2018-02-04T03:19:06.969Z,1012.7
2018-02-04T03:24:07.141Z,1012.8
2018-02-04T03:29:07.099Z,1013
2018-02-04T03:34:07.011Z,1013.1
2018-02-04T03:39:06.985Z,1013.1
2018-02-04T03:44:07.021Z,1013.1
2018-02-04T03:49:07.114Z,1013.2
2018-02-04T03:54:07.146Z,1013.2
2018-02-04T03:59:07.024Z,1013.4
2018-02-04T04:04:07.032Z,1013.4
2018-02-04T04:09:07.145Z,1013.5
2018-02-04T04:14:07.078Z,1013.5
2018-02-04T04:19:07.093Z,1013.5
2018-02-04T04:24:07.111Z,1013.5
2018-02-04T04:29:07.291Z,1013.5
2018-02-04T04:34:07.106Z,1013.6
2018-02-04T04:39:07.254Z,1013.6
2018-02-04T04:44:07.297Z,1013.7
2018-02-04T04:49:07.096Z,1013.7
2018-02-04T04:54:07.106Z,1013.7
2018-02-04T04:59:07.124Z,1013.7
2018-02-04T05:04:07.154Z,1013.8
2018-02-04T05:09:07.191Z,1013.9
2018-02-04T05:14:07.171Z,1013.9
2018-02-04T05:19:07.327Z,1014.2
2018-02-04T05:24:07.147Z,1014.3
2018-02-04T05:29:07.388Z,1014.4
2018-02-04T05:34:07.133Z,1014.5
2018-02-04T05:39:07.359Z,1014.6
2018-02-04T05:44:07.292Z,1014.7
2018-02-04T05:49:07.204Z,1015
2018-02-04T05:54:07.170Z,1014.9
2018-02-04T05:59:07.373Z,1015
2018-02-04T06:04:07.214Z,1015.1
2018-02-04T06:09:07.199Z,1015.2
2018-02-04T06:14:07.390Z,1015.3
2018-02-04T06:19:07.406Z,1015.4
2018-02-04T06:24:07.237Z,1015.5
2018-02-04T06:29:07.231Z,1015.6
2018-02-04T06:34:07.230Z,1015.7
2018-02-04T06:39:09.685Z,1015.8
2018-02-04T06:44:14.775Z,1015.9
2018-02-04T06:49:09.631Z,1016
2018-02-04T06:54:09.905Z,1016
2018-02-04T06:59:09.824Z,1016.1
2018-02-04T07:04:09.748Z,1016.2
2018-02-04T07:09:09.905Z,1016.3
2018-02-04T07:14:09.850Z,1016.3
2018-02-04T07:19:09.704Z,1016.5
2018-02-04T07:24:09.729Z,1016.4
2018-02-04T07:29:09.873Z,1016.5
2018-02-04T07:34:09.719Z,1016.5
2018-02-04T07:39:09.902Z,1016.6
2018-02-04T07:44:09.666Z,1016.5
2018-02-04T07:49:09.734Z,1016.7
2018-02-04T07:54:09.739Z,1016.8
2018-02-04T07:59:09.728Z,1016.9
2018-02-04T08:04:09.745Z,1017
2018-02-04T08:09:09.923Z,1016.8
2018-02-04T08:14:09.789Z,1016.9
2018-02-04T08:19:09.779Z,1017
2018-02-04T08:24:10.023Z,1017
2018-02-04T08:29:09.774Z,1017
2018-02-04T08:34:09.946Z,1017
2018-02-04T08:39:10.100Z,1017
2018-02-04T08:44:10.002Z,1016.9
2018-02-04T08:49:10.088Z,1017
2018-02-04T08:54:10.016Z,1017
2018-02-04T08:59:10.009Z,1017
2018-02-04T09:04:10.010Z,1017.1
2018-02-04T09:09:10.032Z,1017.1
2018-02-04T09:14:10.019Z,1017.2
2018-02-04T09:19:10.091Z,1017.2
2018-02-04T09:24:10.044Z,1017.2
2018-02-04T09:29:10.054Z,1017.3
2018-02-04T09:34:10.067Z,1017.4
2018-02-04T09:39:10.056Z,1017.5
2018-02-04T09:44:10.289Z,1017.5
2018-02-04T09:49:10.055Z,1017.6
2018-02-04T09:54:10.053Z,1017.6
2018-02-04T09:59:10.053Z,1017.6
2018-02-04T10:04:10.095Z,1017.6
2018-02-04T10:09:10.058Z,1017.7
2018-02-04T10:14:10.069Z,1017.8
2018-02-04T10:19:10.054Z,1017.9
2018-02-04T10:24:10.098Z,1017.8
2018-02-04T10:29:10.055Z,1017.9
2018-02-04T10:34:10.079Z,1018
2018-02-04T10:39:10.619Z,1018
2018-02-04T10:44:10.164Z,1017.9
2018-02-04T10:49:10.064Z,1017.9
2018-02-04T10:54:10.088Z,1017.9
2018-02-04T10:59:10.065Z,1017.9
2018-02-04T11:04:10.113Z,1017.9
2018-02-04T11:09:10.074Z,1018
2018-02-04T11:14:10.080Z,1017.8
2018-02-04T11:19:10.083Z,1017.8
2018-02-04T11:24:10.076Z,1017.9
2018-02-04T11:29:10.107Z,1018
2018-02-04T11:34:10.125Z,1018
2018-02-04T11:39:14.732Z,1018
2018-02-04T11:44:19.811Z,1018
2018-02-04T11:49:14.557Z,1018
2018-02-04T11:54:14.619Z,1018.1
2018-02-04T11:59:14.448Z,1018
2018-02-04T12:04:14.448Z,1018.1
2018-02-04T12:09:14.759Z,1018
2018-02-04T12:14:14.862Z,1018.1
2018-02-04T12:19:14.782Z,1018.1
2018-02-04T12:24:15.207Z,1018.1
2018-02-04T12:29:14.918Z,1018.1
2018-02-04T12:34:14.903Z,1018.2
2018-02-04T12:39:15.875Z,1018.2
2018-02-04T12:44:14.739Z,1018.2
2018-02-04T12:49:14.890Z,1018.3
2018-02-04T12:54:14.773Z,1018.2
2018-02-04T12:59:14.757Z,1018.3
2018-02-04T13:04:14.743Z,1018.4
2018-02-04T13:09:14.671Z,1018.4
2018-02-04T13:14:14.682Z,1018.3
2018-02-04T13:19:14.789Z,1018.3
2018-02-04T13:24:14.685Z,1018.4
2018-02-04T13:29:14.681Z,1018.5
2018-02-04T13:34:14.731Z,1018.6
2018-02-04T13:39:14.710Z,1018.6
2018-02-04T13:44:16.053Z,1018.6
2018-02-04T13:49:14.874Z,1018.8
2018-02-04T13:54:14.806Z,1018.9
2018-02-04T13:59:15.132Z,1018.9
2018-02-04T14:04:15.161Z,1018.9
2018-02-04T14:09:15.409Z,1018.8
2018-02-04T14:14:14.707Z,1019.1
2018-02-04T14:19:17.648Z,1019.1
2018-02-04T14:24:14.727Z,1019.1
2018-02-04T14:29:14.750Z,1019.1
2018-02-04T14:34:14.740Z,1019.2
2018-02-04T14:39:14.854Z,1019.3
2018-02-04T14:44:14.943Z,1019.4
2018-02-04T14:49:15.090Z,1019.4
2018-02-04T14:54:14.951Z,1019.5
2018-02-04T14:59:14.887Z,1019.5
2018-02-04T15:04:15.185Z,1019.6
2018-02-04T15:09:14.882Z,1019.7
2018-02-04T15:14:14.807Z,1019.8
2018-02-04T15:19:14.913Z,1019.8
2018-02-04T15:24:14.873Z,1019.8
2018-02-04T15:29:14.880Z,1019.9
2018-02-04T15:34:15.072Z,1020
2018-02-04T15:39:14.873Z,1020.1
2018-02-04T15:44:14.889Z,1020.2
2018-02-04T15:49:14.871Z,1020.2
2018-02-04T15:54:14.868Z,1020.3
2018-02-04T15:59:16.617Z,1020.3
2018-02-04T16:04:17.804Z,1020.6
2018-02-04T16:09:17.415Z,1020.7
2018-02-04T16:14:16.909Z,1020.6
2018-02-04T16:19:18.532Z,1020.8
2018-02-04T16:24:18.185Z,1020.9
2018-02-04T16:29:20.015Z,1021
2018-02-04T16:34:14.955Z,1021.1
2018-02-04T16:39:14.921Z,1021.2
2018-02-04T16:44:15.049Z,1021.3
2018-02-04T16:49:15.184Z,1021.3
2018-02-04T16:54:15.043Z,1021.5
2018-02-04T16:59:14.988Z,1021.4
2018-02-04T17:04:15.162Z,1021.5
2018-02-04T17:09:15.052Z,1021.7
2018-02-04T17:14:15.256Z,1021.7
2018-02-04T17:19:15.069Z,1021.9
2018-02-04T17:24:15.064Z,1022
2018-02-04T17:29:15.129Z,1022.1
2018-02-04T17:34:15.316Z,1022.1
2018-02-04T17:39:15.243Z,1022.2
2018-02-04T17:44:15.473Z,1022.3
2018-02-04T17:49:15.258Z,1022.4
2018-02-04T17:54:15.401Z,1022.4
2018-02-04T17:59:15.265Z,1022.5
2018-02-04T18:04:15.266Z,1022.7
2018-02-04T18:09:15.302Z,1022.6
2018-02-04T18:14:15.416Z,1022.6
2018-02-04T18:19:15.313Z,1022.7
2018-02-04T18:24:15.250Z,1022.7
2018-02-04T18:29:15.291Z,1022.8
2018-02-04T18:34:15.299Z,1022.8
2018-02-04T18:39:15.401Z,1022.8
2018-02-04T18:44:15.318Z,1022.9
2018-02-04T18:49:15.313Z,1022.9
2018-02-04T18:54:15.436Z,1022.9
2018-02-04T18:59:15.302Z,1023.1
2018-02-04T19:04:15.402Z,1023.1
2018-02-04T19:09:15.558Z,1023.1
2018-02-04T19:14:15.265Z,1023.2
2018-02-04T19:19:15.323Z,1023.2
2018-02-04T19:24:15.318Z,1023.2
2018-02-04T19:29:15.442Z,1023.2
2018-02-04T19:34:15.348Z,1023.3
2018-02-04T19:39:15.371Z,1023.3
2018-02-04T19:44:15.377Z,1023.3
2018-02-04T19:49:15.358Z,1023.3
2018-02-04T19:54:15.338Z,1023.5
2018-02-04T19:59:15.721Z,1023.5
2018-02-04T20:04:15.625Z,1023.5
2018-02-04T20:09:15.372Z,1023.6
2018-02-04T20:14:15.453Z,1023.7
2018-02-04T20:19:15.499Z,1023.7
2018-02-04T20:24:15.378Z,1023.7
2018-02-04T20:29:15.604Z,1023.8
2018-02-04T20:34:15.731Z,1023.8
2018-02-04T20:39:15.546Z,1023.8
2018-02-04T20:44:15.481Z,1023.9
2018-02-04T20:49:15.538Z,1024.2
2018-02-04T20:54:15.680Z,1024.2
2018-02-04T20:59:15.665Z,1024.2
2018-02-04T21:04:15.380Z,1024.3
2018-02-04T21:09:15.454Z,1024.3
2018-02-04T21:14:15.466Z,1024.3
2018-02-04T21:19:15.529Z,1024.3
2018-02-04T21:24:19.551Z,1024.4
2018-02-04T21:29:24.965Z,1024.4
2018-02-04T21:34:19.772Z,1024.4
2018-02-04T21:39:19.950Z,1024.5
2018-02-04T21:44:19.790Z,1024.6
2018-02-04T21:49:19.845Z,1024.6
2018-02-04T21:54:19.946Z,1024.7
2018-02-04T21:59:19.884Z,1024.7
2018-02-04T22:04:19.911Z,1024.8
2018-02-04T22:09:19.830Z,1024.8
2018-02-04T22:14:19.835Z,1024.8
2018-02-04T22:19:19.856Z,1024.9
2018-02-04T22:24:20.012Z,1025
2018-02-04T22:29:19.788Z,1025.1
2018-02-04T22:34:19.848Z,1025.1
2018-02-04T22:39:19.864Z,1025.1
2018-02-04T22:44:19.838Z,1025
2018-02-04T22:49:19.890Z,1025.1
2018-02-04T22:54:19.868Z,1025.2
2018-02-04T22:59:20.070Z,1025.2
2018-02-04T23:04:20.114Z,1025.4
2018-02-04T23:09:19.868Z,1025.3
2018-02-04T23:14:19.867Z,1025.3
2018-02-04T23:19:19.879Z,1025.4
2018-02-04T23:24:19.873Z,1025.4
2018-02-04T23:29:19.889Z,1025.5
2018-02-04T23:34:19.907Z,1025.4
2018-02-04T23:39:19.848Z,1025.5
2018-02-04T23:44:20.003Z,1025.5
2018-02-04T23:49:19.877Z,1025.5
2018-02-04T23:54:20.099Z,1025.5
2018-02-04T23:59:19.898Z,1025.4
